createdAt,value
2018-01-25T00:00:29.899Z,0.00
2018-01-25T00:01:29.826Z,0.00
2018-01-25T00:02:29.818Z,0.00
2018-01-25T00:03:29.803Z,0.00
2018-01-25T00:04:29.791Z,0.00
2018-01-25T00:05:29.784Z,0.00
2018-01-25T00:06:29.828Z,0.00
2018-01-25T00:07:29.753Z,0.00
2018-01-25T00:08:29.745Z,0.00
2018-01-25T00:09:29.728Z,0.00
2018-01-25T00:10:29.719Z,0.00
2018-01-25T00:11:29.705Z,0.00
2018-01-25T00:12:29.743Z,0.00
2018-01-25T00:13:29.677Z,0.00
2018-01-25T00:14:29.667Z,0.00
2018-01-25T00:15:29.661Z,0.00
2018-01-25T00:16:29.644Z,0.00
2018-01-25T00:17:29.630Z,0.00
2018-01-25T00:18:29.627Z,0.00
2018-01-25T00:19:29.612Z,0.00
2018-01-25T00:20:29.596Z,0.00
2018-01-25T00:21:29.586Z,0.00
2018-01-25T00:22:29.563Z,0.00
2018-01-25T00:23:29.619Z,0.00
2018-01-25T00:24:29.547Z,0.00
2018-01-25T00:25:29.530Z,0.00
2018-01-25T00:26:29.520Z,0.00
2018-01-25T00:27:29.504Z,0.00
2018-01-25T00:28:29.492Z,0.00
2018-01-25T00:29:29.511Z,0.00
2018-01-25T00:30:29.469Z,0.00
2018-01-25T00:31:29.459Z,0.00
2018-01-25T00:32:29.436Z,0.00
2018-01-25T00:33:29.430Z,0.00
2018-01-25T00:34:29.448Z,0.00
2018-01-25T00:35:29.408Z,0.00
2018-01-25T00:36:29.391Z,0.00
2018-01-25T00:37:29.386Z,0.00
2018-01-25T00:38:29.370Z,0.00
2018-01-25T00:39:29.421Z,0.00
2018-01-25T00:40:29.344Z,0.00
2018-01-25T00:41:29.333Z,0.00
2018-01-25T00:42:29.318Z,0.00
2018-01-25T00:43:29.304Z,0.00
2018-01-25T00:44:29.293Z,0.00
2018-01-25T00:45:29.292Z,0.00
2018-01-25T00:46:29.269Z,0.00
2018-01-25T00:47:29.255Z,0.00
2018-01-25T00:48:29.238Z,0.00
2018-01-25T00:49:29.286Z,0.00
2018-01-25T00:50:29.220Z,0.00
2018-01-25T00:51:29.206Z,0.00
2018-01-25T00:52:29.197Z,0.00
2018-01-25T00:53:29.180Z,0.00
2018-01-25T00:54:29.164Z,0.00
2018-01-25T00:55:29.154Z,0.00
2018-01-25T00:56:29.138Z,0.00
2018-01-25T00:57:29.123Z,0.00
2018-01-25T00:58:29.112Z,0.00
2018-01-25T00:59:29.101Z,0.00
2018-01-25T01:00:29.116Z,0.00
2018-01-25T01:01:29.082Z,0.00
2018-01-25T01:02:29.065Z,0.00
2018-01-25T01:03:29.049Z,0.00
2018-01-25T01:04:29.037Z,0.00
2018-01-25T01:05:29.022Z,0.00
2018-01-25T01:06:29.064Z,0.00
2018-01-25T01:07:29.000Z,0.00
2018-01-25T01:08:28.982Z,0.00
2018-01-25T01:09:28.964Z,0.00
2018-01-25T01:10:28.950Z,0.00
2018-01-25T01:11:28.946Z,0.00
2018-01-25T01:12:28.924Z,0.00
2018-01-25T01:13:28.906Z,0.00
2018-01-25T01:14:28.890Z,0.00
2018-01-25T01:15:28.876Z,0.00
2018-01-25T01:16:28.867Z,0.00
2018-01-25T01:17:28.880Z,0.00
2018-01-25T01:18:28.839Z,0.00
2018-01-25T01:19:28.820Z,0.00
2018-01-25T01:20:28.837Z,0.00
2018-01-25T01:21:29.411Z,0.00
2018-01-25T01:22:28.775Z,0.00
2018-01-25T01:23:28.794Z,0.00
2018-01-25T01:24:28.741Z,0.00
2018-01-25T01:25:28.734Z,0.00
2018-01-25T01:26:28.748Z,0.00
2018-01-25T01:27:28.702Z,0.00
2018-01-25T01:28:28.684Z,0.00
2018-01-25T01:29:28.669Z,0.00
2018-01-25T01:30:28.711Z,0.00
2018-01-25T01:31:28.640Z,0.00
2018-01-25T01:32:28.629Z,0.00
2018-01-25T01:33:28.614Z,0.00
2018-01-25T01:34:28.602Z,0.00
2018-01-25T01:35:28.590Z,0.00
2018-01-25T01:36:28.580Z,0.00
2018-01-25T01:37:28.557Z,0.00
2018-01-25T01:38:28.573Z,0.00
2018-01-25T01:39:28.527Z,0.00
2018-01-25T01:40:28.506Z,0.00
2018-01-25T01:41:28.489Z,0.00
2018-01-25T01:42:28.526Z,0.00
2018-01-25T01:43:28.459Z,0.00
2018-01-25T01:44:28.455Z,0.00
2018-01-25T01:45:28.428Z,0.00
2018-01-25T01:46:28.414Z,0.00
2018-01-25T01:47:28.468Z,0.00
2018-01-25T01:48:28.386Z,0.00
2018-01-25T01:49:28.367Z,0.00
2018-01-25T01:50:28.354Z,0.00
2018-01-25T01:51:28.345Z,0.00
2018-01-25T01:52:28.331Z,0.00
2018-01-25T01:53:28.476Z,0.00
2018-01-25T01:54:28.299Z,0.00
2018-01-25T01:55:28.281Z,0.00
2018-01-25T01:56:28.275Z,0.00
2018-01-25T01:57:28.259Z,0.00
2018-01-25T01:58:28.243Z,0.00
2018-01-25T01:59:28.234Z,0.00
2018-01-25T02:00:28.210Z,0.00
2018-01-25T02:01:28.201Z,0.00
2018-01-25T02:02:28.185Z,0.00
2018-01-25T02:03:28.171Z,0.00
2018-01-25T02:04:28.207Z,0.00
2018-01-25T02:05:28.141Z,0.00
2018-01-25T02:06:28.125Z,0.00
2018-01-25T02:07:28.117Z,0.00
2018-01-25T02:08:28.143Z,0.00
2018-01-25T02:09:28.082Z,0.00
2018-01-25T02:10:28.098Z,0.00
2018-01-25T02:11:28.038Z,0.00
2018-01-25T02:12:28.033Z,0.00
2018-01-25T02:13:28.060Z,0.00
2018-01-25T02:14:28.923Z,0.00
2018-01-25T02:15:27.993Z,0.00
2018-01-25T02:16:27.985Z,0.00
2018-01-25T02:17:27.956Z,0.00
2018-01-25T02:18:27.945Z,0.00
2018-01-25T02:19:27.964Z,0.00
2018-01-25T02:20:27.946Z,0.00
2018-01-25T02:21:27.893Z,0.00
2018-01-25T02:22:27.895Z,0.00
2018-01-25T02:23:27.874Z,0.00
2018-01-25T02:24:27.870Z,0.00
2018-01-25T02:25:27.841Z,0.00
2018-01-25T02:26:27.827Z,0.00
2018-01-25T02:27:27.816Z,0.00
2018-01-25T02:28:27.797Z,0.00
2018-01-25T02:29:27.785Z,0.00
2018-01-25T02:30:27.764Z,0.00
2018-01-25T02:31:27.783Z,0.00
2018-01-25T02:32:27.732Z,0.00
2018-01-25T02:33:27.730Z,0.00
2018-01-25T02:34:27.711Z,0.00
2018-01-25T02:35:27.693Z,0.00
2018-01-25T02:36:27.681Z,0.00
2018-01-25T02:37:27.663Z,0.00
2018-01-25T02:38:27.710Z,0.00
2018-01-25T02:39:27.635Z,0.00
2018-01-25T02:40:27.620Z,0.00
2018-01-25T02:41:27.608Z,0.00
2018-01-25T02:42:27.586Z,0.00
2018-01-25T02:43:27.574Z,0.00
2018-01-25T02:44:27.878Z,0.00
2018-01-25T02:45:27.540Z,0.00
2018-01-25T02:46:27.530Z,0.00
2018-01-25T02:47:27.511Z,0.00
2018-01-25T02:48:27.507Z,0.00
2018-01-25T02:49:27.478Z,0.00
2018-01-25T02:50:27.475Z,0.00
2018-01-25T02:51:27.446Z,0.00
2018-01-25T02:52:27.440Z,0.00
2018-01-25T02:53:27.422Z,0.00
2018-01-25T02:54:27.414Z,0.00
2018-01-25T02:55:27.452Z,0.00
2018-01-25T02:56:27.384Z,0.00
2018-01-25T02:57:27.357Z,0.00
2018-01-25T02:58:27.342Z,0.00
2018-01-25T02:59:27.341Z,0.00
2018-01-25T03:00:27.315Z,0.00
2018-01-25T03:01:27.366Z,0.00
2018-01-25T03:02:27.289Z,0.00
2018-01-25T03:03:27.267Z,0.00
2018-01-25T03:04:27.258Z,0.00
2018-01-25T03:05:27.238Z,0.00
2018-01-25T03:06:27.253Z,0.00
2018-01-25T03:07:27.248Z,0.00
2018-01-25T03:08:27.200Z,0.00
2018-01-25T03:09:27.186Z,0.00
2018-01-25T03:10:27.173Z,0.00
2018-01-25T03:11:27.149Z,0.00
2018-01-25T03:12:27.462Z,0.00
2018-01-25T03:13:27.119Z,0.00
2018-01-25T03:14:27.104Z,0.00
2018-01-25T03:15:27.084Z,0.00
2018-01-25T03:16:27.084Z,0.00
2018-01-25T03:17:27.068Z,0.00
2018-01-25T03:18:27.048Z,0.00
2018-01-25T03:19:27.038Z,0.00
2018-01-25T03:20:27.019Z,0.00
2018-01-25T03:21:27.007Z,0.00
2018-01-25T03:22:26.998Z,0.00
2018-01-25T03:23:27.003Z,0.00
2018-01-25T03:24:26.953Z,0.00
2018-01-25T03:25:26.942Z,0.00
2018-01-25T03:26:26.976Z,0.00
2018-01-25T03:27:26.912Z,0.00
2018-01-25T03:28:26.888Z,0.00
2018-01-25T03:29:26.880Z,0.00
2018-01-25T03:30:26.863Z,0.00
2018-01-25T03:31:26.845Z,0.00
2018-01-25T03:32:26.835Z,0.00
2018-01-25T03:33:26.818Z,0.00
2018-01-25T03:34:26.800Z,0.00
2018-01-25T03:35:26.789Z,0.00
2018-01-25T03:36:26.768Z,0.00
2018-01-25T03:37:26.784Z,0.00
2018-01-25T03:38:26.763Z,0.00
2018-01-25T03:39:26.724Z,0.00
2018-01-25T03:40:26.710Z,0.00
2018-01-25T03:41:26.696Z,0.00
2018-01-25T03:42:26.681Z,0.00
2018-01-25T03:43:26.679Z,0.00
2018-01-25T03:44:26.658Z,0.00
2018-01-25T03:45:26.638Z,0.00
2018-01-25T03:46:26.624Z,0.00
2018-01-25T03:47:27.441Z,0.00
2018-01-25T03:48:26.610Z,0.00
2018-01-25T03:49:26.564Z,0.00
2018-01-25T03:50:26.558Z,0.00
2018-01-25T03:51:26.545Z,0.00
2018-01-25T03:52:26.531Z,0.00
2018-01-25T03:53:26.543Z,0.00
2018-01-25T03:54:26.493Z,0.00
2018-01-25T03:55:26.490Z,0.00
2018-01-25T03:56:26.467Z,0.00
2018-01-25T03:57:26.512Z,0.00
2018-01-25T03:58:26.427Z,0.00
2018-01-25T03:59:26.410Z,0.00
2018-01-25T04:00:26.406Z,0.00
2018-01-25T04:01:26.386Z,0.00
2018-01-25T04:02:26.447Z,0.00
2018-01-25T04:03:26.358Z,0.00
2018-01-25T04:04:26.340Z,0.00
2018-01-25T04:05:26.330Z,0.00
2018-01-25T04:06:26.317Z,0.00
2018-01-25T04:07:26.297Z,0.00
2018-01-25T04:08:26.315Z,0.00
2018-01-25T04:09:26.263Z,0.00
2018-01-25T04:10:26.253Z,0.00
2018-01-25T04:11:26.235Z,0.00
2018-01-25T04:12:26.219Z,0.00
2018-01-25T04:13:26.229Z,0.00
2018-01-25T04:14:26.184Z,0.00
2018-01-25T04:15:26.169Z,0.00
2018-01-25T04:16:26.162Z,0.00
2018-01-25T04:17:26.149Z,0.00
2018-01-25T04:18:26.159Z,0.00
2018-01-25T04:19:26.111Z,0.00
2018-01-25T04:20:26.099Z,0.00
2018-01-25T04:21:26.083Z,0.00
2018-01-25T04:22:26.077Z,0.00
2018-01-25T04:23:26.082Z,0.00
2018-01-25T04:24:26.033Z,0.00
2018-01-25T04:25:26.024Z,0.00
2018-01-25T04:26:26.009Z,0.00
2018-01-25T04:27:25.992Z,0.00
2018-01-25T04:28:26.003Z,0.00
2018-01-25T04:29:25.962Z,0.00
2018-01-25T04:30:25.982Z,0.00
2018-01-25T04:31:25.926Z,0.00
2018-01-25T04:32:25.906Z,0.00
2018-01-25T04:33:25.906Z,0.00
2018-01-25T04:34:25.895Z,0.00
2018-01-25T04:35:25.863Z,0.00
2018-01-25T04:36:25.856Z,0.00
2018-01-25T04:37:25.831Z,0.00
2018-01-25T04:38:25.814Z,0.00
2018-01-25T04:39:25.805Z,0.00
2018-01-25T04:40:25.796Z,0.00
2018-01-25T04:41:26.018Z,0.00
2018-01-25T04:42:25.760Z,0.00
2018-01-25T04:43:25.745Z,0.00
2018-01-25T04:44:25.730Z,0.00
2018-01-25T04:45:25.707Z,0.00
2018-01-25T04:46:25.694Z,0.00
2018-01-25T04:47:25.717Z,0.00
2018-01-25T04:48:25.660Z,0.00
2018-01-25T04:49:25.652Z,0.00
2018-01-25T04:50:25.644Z,0.00
2018-01-25T04:51:25.624Z,0.00
2018-01-25T04:52:25.633Z,0.00
2018-01-25T04:53:25.588Z,0.00
2018-01-25T04:54:25.570Z,0.00
2018-01-25T04:55:25.609Z,0.00
2018-01-25T04:56:25.543Z,0.00
2018-01-25T04:57:25.527Z,0.00
2018-01-25T04:58:25.527Z,0.00
2018-01-25T04:59:25.503Z,0.00
2018-01-25T05:00:25.487Z,0.00
2018-01-25T05:01:25.478Z,0.00
2018-01-25T05:02:25.455Z,0.00
2018-01-25T05:03:25.433Z,0.00
2018-01-25T05:04:25.417Z,0.00
2018-01-25T05:05:25.406Z,0.00
2018-01-25T05:06:25.440Z,0.00
2018-01-25T05:07:25.371Z,0.00
2018-01-25T05:08:25.361Z,0.00
2018-01-25T05:09:25.349Z,0.00
2018-01-25T05:10:25.325Z,0.00
2018-01-25T05:11:25.315Z,0.00
2018-01-25T05:12:25.358Z,0.00
2018-01-25T05:13:25.284Z,0.00
2018-01-25T05:14:25.269Z,0.00
2018-01-25T05:15:25.256Z,0.00
2018-01-25T05:16:25.231Z,0.00
2018-01-25T05:17:25.220Z,0.00
2018-01-25T05:18:25.220Z,0.00
2018-01-25T05:19:25.191Z,0.00
2018-01-25T05:20:25.169Z,0.00
2018-01-25T05:21:25.158Z,0.00
2018-01-25T05:22:25.208Z,0.00
2018-01-25T05:23:25.138Z,0.00
2018-01-25T05:24:25.110Z,0.00
2018-01-25T05:25:25.092Z,0.00
2018-01-25T05:26:25.079Z,0.00
2018-01-25T05:27:25.070Z,0.00
2018-01-25T05:28:25.061Z,0.00
2018-01-25T05:29:25.041Z,0.00
2018-01-25T05:30:25.027Z,0.00
2018-01-25T05:31:25.005Z,0.00
2018-01-25T05:32:24.984Z,0.00
2018-01-25T05:33:24.979Z,0.00
2018-01-25T05:34:24.961Z,0.00
2018-01-25T05:35:24.937Z,0.00
2018-01-25T05:36:24.916Z,0.00
2018-01-25T05:37:24.906Z,0.00
2018-01-25T05:38:24.949Z,0.00
2018-01-25T05:39:24.888Z,0.00
2018-01-25T05:40:24.867Z,0.00
2018-01-25T05:41:24.852Z,0.00
2018-01-25T05:42:24.840Z,0.00
2018-01-25T05:43:24.822Z,0.00
2018-01-25T05:44:24.839Z,0.00
2018-01-25T05:45:24.799Z,0.00
2018-01-25T05:46:24.782Z,0.00
2018-01-25T05:47:24.758Z,0.00
2018-01-25T05:48:24.783Z,0.00
2018-01-25T05:49:24.726Z,0.00
2018-01-25T05:50:24.717Z,0.00
2018-01-25T05:51:24.701Z,0.00
2018-01-25T05:52:24.678Z,0.00
2018-01-25T05:53:24.724Z,0.00
2018-01-25T05:54:24.651Z,0.00
2018-01-25T05:55:24.648Z,0.00
2018-01-25T05:56:24.626Z,0.00
2018-01-25T05:57:24.604Z,0.00
2018-01-25T05:58:24.607Z,0.00
2018-01-25T05:59:24.608Z,0.00
2018-01-25T06:00:24.559Z,0.00
2018-01-25T06:01:24.553Z,0.00
2018-01-25T06:02:24.542Z,0.00
2018-01-25T06:03:24.820Z,0.00
2018-01-25T06:04:24.512Z,0.00
2018-01-25T06:05:24.487Z,0.00
2018-01-25T06:06:24.466Z,0.00
2018-01-25T06:07:24.453Z,0.00
2018-01-25T06:08:24.451Z,0.00
2018-01-25T06:09:24.462Z,0.00
2018-01-25T06:10:24.405Z,0.00
2018-01-25T06:11:24.401Z,0.00
2018-01-25T06:12:24.373Z,0.00
2018-01-25T06:13:24.375Z,0.00
2018-01-25T06:14:24.415Z,0.00
2018-01-25T06:15:24.333Z,0.00
2018-01-25T06:16:24.323Z,0.00
2018-01-25T06:17:24.308Z,0.00
2018-01-25T06:18:24.291Z,0.00
2018-01-25T06:19:24.273Z,0.00
2018-01-25T06:20:24.260Z,0.00
2018-01-25T06:21:24.240Z,0.00
2018-01-25T06:22:24.239Z,0.00
2018-01-25T06:23:24.209Z,0.00
2018-01-25T06:24:24.195Z,0.00
2018-01-25T06:25:24.174Z,0.00
2018-01-25T06:26:24.159Z,0.00
2018-01-25T06:27:24.205Z,0.00
2018-01-25T06:28:24.138Z,0.00
2018-01-25T06:29:24.127Z,0.00
2018-01-25T06:30:24.109Z,0.00
2018-01-25T06:31:24.100Z,0.00
2018-01-25T06:32:24.080Z,0.00
2018-01-25T06:33:24.367Z,0.00
2018-01-25T06:34:24.045Z,0.00
2018-01-25T06:35:24.024Z,0.00
2018-01-25T06:36:24.014Z,0.00
2018-01-25T06:37:24.008Z,0.00
2018-01-25T06:38:23.989Z,0.00
2018-01-25T06:39:24.011Z,0.00
2018-01-25T06:40:23.952Z,0.00
2018-01-25T06:41:23.939Z,0.00
2018-01-25T06:42:23.922Z,0.00
2018-01-25T06:43:23.914Z,0.00
2018-01-25T06:44:23.963Z,0.00
2018-01-25T06:45:23.880Z,0.00
2018-01-25T06:46:23.861Z,0.00
2018-01-25T06:47:23.860Z,0.00
2018-01-25T06:48:23.834Z,0.00
2018-01-25T06:49:23.814Z,0.00
2018-01-25T06:50:23.860Z,0.00
2018-01-25T06:51:23.785Z,0.00
2018-01-25T06:52:23.776Z,0.00
2018-01-25T06:53:23.759Z,0.00
2018-01-25T06:54:23.743Z,4.00
2018-01-25T06:55:23.742Z,4.00
2018-01-25T06:56:24.004Z,4.00
2018-01-25T06:57:23.698Z,8.00
2018-01-25T06:58:23.679Z,4.00
2018-01-25T06:59:23.678Z,4.00
2018-01-25T07:00:23.651Z,8.00
2018-01-25T07:01:23.642Z,8.00
2018-01-25T07:02:23.958Z,12.00
2018-01-25T07:03:23.611Z,8.00
2018-01-25T07:04:23.594Z,8.00
2018-01-25T07:05:23.585Z,8.00
2018-01-25T07:06:23.563Z,12.00
2018-01-25T07:07:23.548Z,8.00
2018-01-25T07:08:23.567Z,12.00
2018-01-25T07:09:23.516Z,16.00
2018-01-25T07:10:23.506Z,16.00
2018-01-25T07:11:23.490Z,20.00
2018-01-25T07:12:23.527Z,24.00
2018-01-25T07:13:23.461Z,28.00
2018-01-25T07:14:23.463Z,36.00
2018-01-25T07:15:23.432Z,40.00
2018-01-25T07:16:23.410Z,44.00
2018-01-25T07:17:23.392Z,52.00
2018-01-25T07:18:23.440Z,64.00
2018-01-25T07:19:23.374Z,68.00
2018-01-25T07:20:23.348Z,64.00
2018-01-25T07:21:23.332Z,60.00
2018-01-25T07:22:23.320Z,64.00
2018-01-25T07:23:23.316Z,68.00
2018-01-25T07:24:23.297Z,68.00
2018-01-25T07:25:23.279Z,72.00
2018-01-25T07:26:23.269Z,80.00
2018-01-25T07:27:23.249Z,88.00
2018-01-25T07:28:23.229Z,100.00
2018-01-25T07:29:23.291Z,112.00
2018-01-25T07:30:23.196Z,132.00
2018-01-25T07:31:23.180Z,160.00
2018-01-25T07:32:23.164Z,196.00
2018-01-25T07:33:23.161Z,228.00
2018-01-25T07:34:23.140Z,244.00
2018-01-25T07:35:23.347Z,256.00
2018-01-25T07:36:23.103Z,272.00
2018-01-25T07:37:23.092Z,308.00
2018-01-25T07:38:23.083Z,324.00
2018-01-25T07:39:23.067Z,336.00
2018-01-25T07:40:23.085Z,348.00
2018-01-25T07:41:23.033Z,364.00
2018-01-25T07:42:23.026Z,344.00
2018-01-25T07:43:23.008Z,388.00
2018-01-25T07:44:22.991Z,420.00
2018-01-25T07:45:23.018Z,456.00
2018-01-25T07:46:22.963Z,452.00
2018-01-25T07:47:22.952Z,428.00
2018-01-25T07:48:22.934Z,428.00
2018-01-25T07:49:22.911Z,392.00
2018-01-25T07:50:22.901Z,360.00
2018-01-25T07:51:22.894Z,480.00
2018-01-25T07:52:22.866Z,552.00
2018-01-25T07:53:22.849Z,520.00
2018-01-25T07:54:22.870Z,380.00
2018-01-25T07:55:22.827Z,304.00
2018-01-25T07:56:23.049Z,348.00
2018-01-25T07:57:22.798Z,404.00
2018-01-25T07:58:22.782Z,452.00
2018-01-25T07:59:22.767Z,524.00
2018-01-25T08:00:22.754Z,588.00
2018-01-25T08:01:22.740Z,676.00
2018-01-25T08:02:22.781Z,700.00
2018-01-25T08:03:22.711Z,668.00
2018-01-25T08:04:22.692Z,808.00
2018-01-25T08:05:22.675Z,712.00
2018-01-25T08:06:22.656Z,924.00
2018-01-25T08:07:22.647Z,1056.00
2018-01-25T08:08:22.638Z,1120.00
2018-01-25T08:09:22.616Z,1088.00
2018-01-25T08:10:22.663Z,1064.00
2018-01-25T08:11:22.595Z,1000.00
2018-01-25T08:12:22.567Z,1052.00
2018-01-25T08:13:22.564Z,956.00
2018-01-25T08:14:22.538Z,948.00
2018-01-25T08:15:22.528Z,1080.00
2018-01-25T08:16:22.509Z,1116.00
2018-01-25T08:17:22.501Z,1160.00
2018-01-25T08:18:22.487Z,1472.00
2018-01-25T08:19:22.467Z,1484.00
2018-01-25T08:20:23.764Z,1616.00
2018-01-25T08:21:22.438Z,1680.00
2018-01-25T08:22:22.422Z,1716.00
2018-01-25T08:23:22.414Z,1796.00
2018-01-25T08:24:22.398Z,1828.00
2018-01-25T08:46:10.656Z,1724.00
2018-01-25T08:47:10.663Z,1684.00
2018-01-25T08:48:10.520Z,2172.00
2018-01-25T08:49:10.502Z,2128.00
2018-01-25T08:50:10.489Z,1888.00
2018-01-25T08:51:10.475Z,1560.00
2018-01-25T08:52:10.762Z,1752.00
2018-01-25T08:53:10.443Z,1872.00
2018-01-25T08:54:10.439Z,2120.00
2018-01-25T08:55:10.424Z,2040.00
2018-01-25T08:56:10.400Z,2060.00
2018-01-25T08:57:10.387Z,2328.00
2018-01-25T08:58:10.381Z,2408.00
2018-01-25T08:59:10.383Z,2580.00
2018-01-25T09:00:10.340Z,2752.00
2018-01-25T09:01:10.335Z,3072.00
2018-01-25T09:10:13.036Z,2824.00
2018-01-25T09:11:07.096Z,2460.00
2018-01-25T09:12:06.997Z,2504.00
2018-01-25T09:13:07.401Z,2824.00
2018-01-25T09:14:07.291Z,3336.00
2018-01-25T09:15:06.980Z,3844.00
2018-01-25T09:16:16.415Z,3888.00
2018-01-25T09:17:06.875Z,3916.00
2018-01-25T09:18:32.548Z,3812.00
2018-01-25T09:19:09.649Z,3720.00
2018-01-25T09:20:11.844Z,3548.00
2018-01-25T09:21:06.829Z,3672.00
2018-01-25T09:22:06.858Z,3676.00
2018-01-25T09:23:06.816Z,3780.00
2018-01-25T09:24:06.791Z,3796.00
2018-01-25T09:25:10.459Z,3756.00
2018-01-25T09:26:06.855Z,3932.00
2018-01-25T09:27:06.945Z,4036.00
2018-01-25T09:28:06.732Z,4184.00
2018-01-25T09:29:06.709Z,4160.00
2018-01-25T09:30:06.703Z,4240.00
2018-01-25T09:31:06.682Z,4256.00
2018-01-25T09:34:22.579Z,4256.00
2018-01-25T09:35:22.569Z,4384.00
2018-01-25T09:36:22.553Z,4460.00
2018-01-25T09:37:24.191Z,4572.00
2018-01-25T09:38:23.517Z,4712.00
2018-01-25T09:39:23.071Z,4316.00
2018-01-25T09:40:22.448Z,4008.00
2018-01-25T09:41:22.426Z,3656.00
2018-01-25T09:42:22.417Z,3400.00
2018-01-25T09:43:22.486Z,3168.00
2018-01-25T09:44:22.385Z,2928.00
2018-01-25T09:45:22.385Z,3180.00
2018-01-25T09:46:22.369Z,3192.00
2018-01-25T09:47:22.356Z,3380.00
2018-01-25T09:48:22.325Z,3640.00
2018-01-25T09:49:22.428Z,3560.00
2018-01-25T09:50:22.295Z,3484.00
2018-01-25T09:51:22.280Z,3620.00
2018-01-25T09:52:23.328Z,3408.00
2018-01-25T09:53:22.263Z,3120.00
2018-01-25T09:54:45.921Z,2868.00
2018-01-25T10:08:15.089Z,3708.00
2018-01-25T10:09:15.067Z,3676.00
2018-01-25T10:10:15.043Z,3756.00
2018-01-25T10:11:15.035Z,3860.00
2018-01-25T10:12:15.073Z,3664.00
2018-01-25T10:13:15.002Z,3636.00
2018-01-25T10:14:14.987Z,3784.00
2018-01-25T10:15:14.965Z,3688.00
2018-01-25T10:18:09.681Z,3968.00
2018-01-25T10:26:51.943Z,3412.00
2018-01-25T10:27:51.018Z,3704.00
2018-01-25T10:28:50.717Z,3756.00
2018-01-25T10:30:27.615Z,3656.00
2018-01-25T10:31:01.288Z,3520.00
2018-01-25T10:31:52.747Z,3508.00
2018-01-25T10:33:15.539Z,3448.00
2018-01-25T10:33:52.314Z,3468.00
2018-01-25T10:34:50.636Z,3020.00
2018-01-25T10:35:51.834Z,2820.00
2018-01-25T10:43:57.160Z,3576.00
2018-01-25T10:45:15.639Z,3628.00
2018-01-25T10:46:33.756Z,3764.00
2018-01-25T10:46:56.879Z,3580.00
2018-01-25T10:47:56.848Z,3456.00
2018-01-25T10:48:56.829Z,3160.00
2018-01-25T10:49:56.846Z,2976.00
2018-01-25T10:50:56.797Z,2676.00
2018-01-25T10:51:56.783Z,2428.00
2018-01-25T10:52:56.767Z,2488.00
2018-01-25T10:53:56.758Z,2640.00
2018-01-25T10:54:56.734Z,2636.00
2018-01-25T10:55:56.717Z,2848.00
2018-01-25T10:56:56.706Z,2944.00
2018-01-25T10:57:56.746Z,3068.00
2018-01-25T10:58:56.682Z,3120.00
2018-01-25T10:59:56.661Z,2932.00
2018-01-25T11:00:56.643Z,3000.00
2018-01-25T11:01:57.144Z,2832.00
2018-01-25T11:02:57.185Z,3148.00
2018-01-25T11:03:57.349Z,2688.00
2018-01-25T11:04:57.389Z,2856.00
2018-01-25T11:05:57.345Z,2884.00
2018-01-25T11:06:56.555Z,3328.00
2018-01-25T11:07:56.540Z,3612.00
2018-01-25T11:08:56.534Z,3208.00
2018-01-25T11:09:56.514Z,3528.00
2018-01-25T11:10:56.563Z,3444.00
2018-01-25T11:11:56.482Z,3068.00
2018-01-25T11:12:56.473Z,3424.00
2018-01-25T11:13:56.452Z,3268.00
2018-01-25T11:14:56.493Z,3464.00
2018-01-25T11:15:56.426Z,3452.00
2018-01-25T11:16:56.437Z,3404.00
2018-01-25T11:17:56.397Z,3600.00
2018-01-25T11:18:56.383Z,3524.00
2018-01-25T11:19:56.399Z,3084.00
2018-01-25T11:20:56.350Z,3588.00
2018-01-25T11:21:56.334Z,3460.00
2018-01-25T11:22:56.319Z,4032.00
2018-01-25T11:23:56.335Z,3876.00
2018-01-25T11:24:56.349Z,3196.00
2018-01-25T11:25:56.274Z,3432.00
2018-01-25T11:26:56.269Z,3240.00
2018-01-25T11:27:56.253Z,3220.00
2018-01-25T11:28:56.237Z,3396.00
2018-01-25T11:29:56.222Z,3300.00
2018-01-25T11:30:56.214Z,3460.00
2018-01-25T11:31:56.190Z,3772.00
2018-01-25T11:32:56.174Z,4004.00
2018-01-25T11:33:56.164Z,3476.00
2018-01-25T11:34:56.151Z,3804.00
2018-01-25T11:35:56.200Z,4104.00
2018-01-25T11:36:56.121Z,4496.00
2018-01-25T11:37:56.102Z,4036.00
2018-01-25T11:38:56.090Z,4160.00
2018-01-25T11:39:56.077Z,4192.00
2018-01-25T11:40:56.062Z,3720.00
2018-01-25T11:41:56.094Z,3988.00
2018-01-25T11:42:56.038Z,4108.00
2018-01-25T11:43:56.046Z,3468.00
2018-01-25T11:44:56.000Z,3356.00
2018-01-25T11:45:55.987Z,3440.00
2018-01-25T11:46:56.197Z,3768.00
2018-01-25T11:47:55.965Z,3980.00
2018-01-25T11:48:55.946Z,4128.00
2018-01-25T11:49:55.933Z,4224.00
2018-01-25T11:50:55.924Z,3828.00
2018-01-25T11:51:55.907Z,4156.00
2018-01-25T11:52:55.893Z,4420.00
2018-01-25T11:53:55.876Z,4212.00
2018-01-25T11:54:55.915Z,3600.00
2018-01-25T11:55:55.848Z,3556.00
2018-01-25T11:56:55.832Z,4028.00
2018-01-25T11:57:55.819Z,3180.00
2018-01-25T11:58:55.800Z,3436.00
2018-01-25T11:59:55.784Z,3712.00
2018-01-25T12:00:55.783Z,3784.00
2018-01-25T12:01:55.758Z,3960.00
2018-01-25T12:02:55.753Z,3932.00
2018-01-25T12:03:55.730Z,4272.00
2018-01-25T12:04:55.716Z,4500.00
2018-01-25T12:05:55.702Z,4044.00
2018-01-25T12:06:55.741Z,4004.00
2018-01-25T12:07:55.676Z,3384.00
2018-01-25T12:08:55.662Z,3712.00
2018-01-25T12:09:55.646Z,3828.00
2018-01-25T12:10:55.631Z,3464.00
2018-01-25T12:11:55.621Z,3036.00
2018-01-25T12:12:55.612Z,3248.00
2018-01-25T12:13:55.600Z,2928.00
2018-01-25T12:14:55.576Z,3092.00
2018-01-25T12:15:55.563Z,3024.00
2018-01-25T12:16:55.542Z,2864.00
2018-01-25T12:17:55.592Z,2932.00
2018-01-25T12:18:55.520Z,2776.00
2018-01-25T12:19:55.504Z,3164.00
2018-01-25T12:20:55.495Z,3472.00
2018-01-25T12:21:55.489Z,3548.00
2018-01-25T12:22:55.461Z,3828.00
2018-01-25T12:23:55.484Z,3412.00
2018-01-25T12:24:55.435Z,3544.00
2018-01-25T12:25:55.425Z,3472.00
2018-01-25T12:26:55.441Z,4188.00
2018-01-25T12:27:55.393Z,4616.00
2018-01-25T12:28:55.451Z,3760.00
2018-01-25T12:29:55.368Z,4248.00
2018-01-25T12:30:55.360Z,4572.00
2018-01-25T12:31:55.338Z,4064.00
2018-01-25T12:32:55.327Z,3376.00
2018-01-25T12:33:55.312Z,2800.00
2018-01-25T12:34:55.301Z,3356.00
2018-01-25T12:35:55.281Z,3448.00
2018-01-25T12:36:55.578Z,3784.00
2018-01-25T12:37:55.252Z,3384.00
2018-01-25T12:38:55.235Z,3312.00
2018-01-25T12:39:55.222Z,2852.00
2018-01-25T12:40:55.220Z,2692.00
2018-01-25T12:41:55.203Z,2948.00
2018-01-25T12:42:55.235Z,3460.00
2018-01-25T12:43:55.171Z,2968.00
2018-01-25T12:44:55.156Z,2324.00
2018-01-25T12:45:55.141Z,1796.00
2018-01-25T12:46:55.131Z,1648.00
2018-01-25T12:47:55.117Z,1792.00
2018-01-25T12:48:55.135Z,1764.00
2018-01-25T12:49:55.091Z,1916.00
2018-01-25T12:50:55.073Z,1968.00
2018-01-25T12:51:55.059Z,2076.00
2018-01-25T12:52:55.050Z,2064.00
2018-01-25T12:53:55.084Z,2432.00
2018-01-25T12:54:55.019Z,2604.00
2018-01-25T12:55:55.001Z,2600.00
2018-01-25T12:56:54.988Z,2376.00
2018-01-25T12:57:54.973Z,2636.00
2018-01-25T12:58:54.961Z,2768.00
2018-01-25T12:59:54.953Z,2672.00
2018-01-25T13:00:54.929Z,2748.00
2018-01-25T13:01:54.918Z,2632.00
2018-01-25T13:02:54.904Z,2648.00
2018-01-25T13:03:54.888Z,2612.00
2018-01-25T13:04:54.882Z,2940.00
2018-01-25T13:05:54.861Z,4360.00
2018-01-25T13:06:54.852Z,4356.00
2018-01-25T13:07:54.835Z,4844.00
2018-01-25T13:08:54.823Z,5540.00
2018-01-25T13:09:54.819Z,5636.00
2018-01-25T13:10:54.828Z,5860.00
2018-01-25T13:11:54.778Z,5520.00
2018-01-25T13:12:54.763Z,5272.00
2018-01-25T13:13:54.747Z,5020.00
2018-01-25T13:14:54.771Z,4732.00
2018-01-25T13:15:54.727Z,4764.00
2018-01-25T13:16:54.711Z,4636.00
2018-01-25T13:17:54.695Z,4416.00
2018-01-25T13:18:54.685Z,4248.00
2018-01-25T13:19:54.729Z,4056.00
2018-01-25T13:20:54.658Z,3544.00
2018-01-25T13:21:54.641Z,2984.00
2018-01-25T13:22:54.630Z,2700.00
2018-01-25T13:23:54.618Z,2940.00
2018-01-25T13:24:54.650Z,3700.00
2018-01-25T13:25:54.622Z,3648.00
2018-01-25T13:26:54.578Z,3172.00
2018-01-25T13:27:54.563Z,3216.00
2018-01-25T13:28:54.545Z,3732.00
2018-01-25T13:29:54.593Z,3276.00
2018-01-25T13:30:54.515Z,2424.00
2018-01-25T13:31:54.509Z,2212.00
2018-01-25T13:32:54.494Z,2088.00
2018-01-25T13:33:54.479Z,1960.00
2018-01-25T13:34:54.464Z,2024.00
2018-01-25T13:35:54.485Z,2272.00
2018-01-25T13:36:54.442Z,2984.00
2018-01-25T13:37:54.422Z,3704.00
2018-01-25T13:38:54.415Z,4268.00
2018-01-25T13:39:54.440Z,4808.00
2018-01-25T13:40:54.415Z,5224.00
2018-01-25T13:41:54.372Z,5360.00
2018-01-25T13:42:54.356Z,5556.00
2018-01-25T13:43:54.341Z,5784.00
2018-01-25T13:44:54.335Z,5864.00
2018-01-25T13:45:54.376Z,5828.00
2018-01-25T13:46:54.306Z,5720.00
2018-01-25T13:47:54.293Z,5624.00